Pula, Croatia

11:48 CEST 27. Srpen 2016 (GMT +0200)
IISTRIAF2 | | Change Station

Výška 98 ft 44.93 °N, 13.81 °E | Updated 3 minutes ago

Clear
Jasno
81.7 °F
Pocit jako 85 °F
S
2.7
Vítr proměnlivý Vítr od JJV
Gusts 2.7 mil/h

Dnes
Vysoké -- | Nízké -- °F
--% Možnost srážek
Včera
Vysoké -- | Nízké -- °F
Precip. -- inčů
Tlak 30.12 inčů
Viditelnost -9999.0 mílí
Zataženo
Tepelný index 85 °F
Rosný bod 69 °F
Vlhkost 65%
Dešťové srážky 0.00 inčů
Sněhová pokrývka Není k dispozici
6:20 AM 7:49 PM
Ubývající srpek, 26% visible
METAR LDPL 270930Z 25004KT 180V320 CAVOK 28/16 Q1020 NOSIG
Tlak 30.12 inčů
Viditelnost -9999.0 mílí
Zataženo
Tepelný index 85 °F
Rosný bod 69 °F
Vlhkost 65%
Dešťové srážky 0.00 inčů
Sněhová pokrývka Není k dispozici
6:20 AM 7:49 PM
Ubývající srpek, 26% visible
METAR LDPL 270930Z 25004KT 180V320 CAVOK 28/16 Q1020 NOSIG

10-Day Weather Forecast

×

Almanac

Astronomie

Aug. 27, 2016 Východ Západ
Skutečný čas
Občanský soumrak
Námořní soumrak
Astronomický soumrak
Měsíc
Délka denního světla
Délka dne
Tomorrow will be .
, % of the Moon is Illuminated

Dnešní extrémy

Nejvyšší hodnoty ve státě Nejnižší hodnoty ve státě

Community

WunderPhotos

Upload Photos

1,935,313 snímků staženo!

WunderBlog® & News

Nearby

Kvalita ovzduší

  Kvalita ovzduší Index kvality ovzduší Polutant
Not available.

Výška sněhu

Station Hloubka Nadmořská výška

Seizmická činnost

Město Distance Mag. Čas & datum
Minimální zobrazený rozsah je 2.5.

Pobřežní teplota vody

Lokalita Teplota

Stations

Poblíž povětrnostní stanice

Lokace stanice Tepl. Ochlazování větrem Rosný bod Vlhkost Vítr Precip. Výška Čas hlášení Typ